<?xml version="1.0" encoding="UTF-8" standalone="no" ?><gpx xmlns="http://www.topografix.com/GPX/1/1" xmlns:gpxx="http://www.garmin.com/xmlschemas/GpxExtensions/v3" xmlns:wptx1="http://www.garmin.com/xmlschemas/WaypointExtension/v1" xmlns:gpxtpx="http://www.garmin.com/xmlschemas/TrackPointExtension/v1" creator="Dakota 20" version="1.1" xmlns:xsi="http://www.w3.org/2001/XMLSchema-instance" xsi:schemaLocation="http://www.topografix.com/GPX/1/1 http://www.topografix.com/GPX/1/1/gpx.xsd http://www.garmin.com/xmlschemas/GpxExtensions/v3 http://www8.garmin.com/xmlschemas/GpxExtensionsv3.xsd http://www.garmin.com/xmlschemas/WaypointExtension/v1 http://www8.garmin.com/xmlschemas/WaypointExtensionv1.xsd http://www.garmin.com/xmlschemas/TrackPointExtension/v1 http://www.garmin.com/xmlschemas/TrackPointExtensionv1.xsd"><metadata><link href="http://www.garmin.com"><text>Garmin International</text></link><time>2015-05-20T15:35:11Z</time></metadata><trk><name>Current Track: 20 MAY 2015 10:24</name><extensions><gpxx:TrackExtension><gpxx:DisplayColor>Cyan</gpxx:DisplayColor></gpxx:TrackExtension></extensions><trkseg><trkpt lat="51.6736905836" lon="-1.9306834694"><ele>81.37</ele><time>2015-05-20T09:24:30Z</time></trkpt><trkpt lat="51.6737243626" lon="-1.9306931924"><ele>80.41</ele><time>2015-05-20T09:24:46Z</time></trkpt><trkpt lat="51.6736733168" lon="-1.9308295660"><ele>80.41</ele><time>2015-05-20T09:25:02Z</time></trkpt><trkpt lat="51.6735509411" lon="-1.9309730642"><ele>79.93</ele><time>2015-05-20T09:25:19Z</time></trkpt><trkpt lat="51.6734219436" lon="-1.9309513550"><ele>79.93</ele><time>2015-05-20T09:25:33Z</time></trkpt><trkpt lat="51.6732999031" lon="-1.9309719745"><ele>79.45</ele><time>2015-05-20T09:25:42Z</time></trkpt><trkpt lat="51.6731533036" lon="-1.9309853856"><ele>79.93</ele><time>2015-05-20T09:25:57Z</time></trkpt><trkpt lat="51.6730154213" lon="-1.9309145585"><ele>80.41</ele><time>2015-05-20T09:26:11Z</time></trkpt><trkpt lat="51.6727941390" lon="-1.9308330026"><ele>79.93</ele><time>2015-05-20T09:26:31Z</time></trkpt><trkpt lat="51.6726339608" lon="-1.9307795260"><ele>79.45</ele><time>2015-05-20T09:26:47Z</time></trkpt><trkpt lat="51.6724141873" lon="-1.9306456670"><ele>80.41</ele><time>2015-05-20T09:27:05Z</time></trkpt><trkpt lat="51.6722756345" lon="-1.9305650331"><ele>79.93</ele><time>2015-05-20T09:27:21Z</time></trkpt><trkpt lat="51.6720835213" lon="-1.9305159990"><ele>79.93</ele><time>2015-05-20T09:27:38Z</time></trkpt><trkpt lat="51.6720326431" lon="-1.9305495266"><ele>79.93</ele><time>2015-05-20T09:27:45Z</time></trkpt><trkpt lat="51.6720165499" lon="-1.9305976387"><ele>80.41</ele><time>2015-05-20T09:27:48Z</time></trkpt><trkpt lat="51.6719081718" lon="-1.9308131374"><ele>79.93</ele><time>2015-05-20T09:28:03Z</time></trkpt><trkpt lat="51.6718409490" lon="-1.9310541172"><ele>80.41</ele><time>2015-05-20T09:28:18Z</time></trkpt><trkpt lat="51.6718235146" lon="-1.9311451446"><ele>80.41</ele><time>2015-05-20T09:28:23Z</time></trkpt><trkpt lat="51.6717383545" lon="-1.9314099289"><ele>80.41</ele><time>2015-05-20T09:28:38Z</time></trkpt><trkpt lat="51.6716905776" lon="-1.9315382559"><ele>80.89</ele><time>2015-05-20T09:28:48Z</time></trkpt><trkpt lat="51.6715926770" lon="-1.9318281859"><ele>81.85</ele><time>2015-05-20T09:29:05Z</time></trkpt><trkpt lat="51.6715552099" lon="-1.9320628792"><ele>80.89</ele><time>2015-05-20T09:29:20Z</time></trkpt><trkpt lat="51.6714860592" lon="-1.9322025217"><ele>81.85</ele><time>2015-05-20T09:29:30Z</time></trkpt><trkpt lat="51.6714222729" lon="-1.9322163519"><ele>80.41</ele><time>2015-05-20T09:29:40Z</time></trkpt><trkpt lat="51.6713476740" lon="-1.9322690740"><ele>80.89</ele><time>2015-05-20T09:29:48Z</time></trkpt><trkpt lat="51.6712108813" lon="-1.9324149191"><ele>81.85</ele><time>2015-05-20T09:30:04Z</time></trkpt><trkpt lat="51.6710062791" lon="-1.9324394781"><ele>82.33</ele><time>2015-05-20T09:30:24Z</time></trkpt><trkpt lat="51.6708233859" lon="-1.9324606843"><ele>80.89</ele><time>2015-05-20T09:30:41Z</time></trkpt><trkpt lat="51.6706259921" lon="-1.9324794598"><ele>82.33</ele><time>2015-05-20T09:30:59Z</time></trkpt><trkpt lat="51.6704652272" lon="-1.9324648753"><ele>83.29</ele><time>2015-05-20T09:31:13Z</time></trkpt><trkpt lat="51.6704225633" lon="-1.9324611872"><ele>81.85</ele><time>2015-05-20T09:31:17Z</time></trkpt><trkpt lat="51.6702557635" lon="-1.9324278273"><ele>82.33</ele><time>2015-05-20T09:31:33Z</time></trkpt><trkpt lat="51.6700763069" lon="-1.9322938006"><ele>82.33</ele><time>2015-05-20T09:31:51Z</time></trkpt><trkpt lat="51.6698914859" lon="-1.9321285933"><ele>82.33</ele><time>2015-05-20T09:32:09Z</time></trkpt><trkpt lat="51.6697142925" lon="-1.9320180360"><ele>81.85</ele><time>2015-05-20T09:32:28Z</time></trkpt><trkpt lat="51.6695542820" lon="-1.9319015276"><ele>82.33</ele><time>2015-05-20T09:32:45Z</time></trkpt><trkpt lat="51.6694346722" lon="-1.9318465423"><ele>82.33</ele><time>2015-05-20T09:33:04Z</time></trkpt><trkpt lat="51.6693415493" lon="-1.9318692572"><ele>82.33</ele><time>2015-05-20T09:33:14Z</time></trkpt><trkpt lat="51.6692779306" lon="-1.9318027049"><ele>82.33</ele><time>2015-05-20T09:33:21Z</time></trkpt><trkpt lat="51.6691018268" lon="-1.9316276908"><ele>82.33</ele><time>2015-05-20T09:33:38Z</time></trkpt><trkpt lat="51.6690341849" lon="-1.9315142836"><ele>82.33</ele><time>2015-05-20T09:33:52Z</time></trkpt><trkpt lat="51.6690562293" lon="-1.9315074105"><ele>83.29</ele><time>2015-05-20T09:34:03Z</time></trkpt><trkpt lat="51.6688727494" lon="-1.9314586278"><ele>83.29</ele><time>2015-05-20T09:34:19Z</time></trkpt><trkpt lat="51.6686503775" lon="-1.9312219229"><ele>82.81</ele><time>2015-05-20T09:34:40Z</time></trkpt><trkpt lat="51.6684955638" lon="-1.9310847111"><ele>83.29</ele><time>2015-05-20T09:34:54Z</time></trkpt><trkpt lat="51.6683306079" lon="-1.9309250358"><ele>82.81</ele><time>2015-05-20T09:35:11Z</time></trkpt><trkpt lat="51.6681405902" lon="-1.9307416398"><ele>82.81</ele><time>2015-05-20T09:35:29Z</time></trkpt><trkpt lat="51.6679315455" lon="-1.9305690564"><ele>82.81</ele><time>2015-05-20T09:35:51Z</time></trkpt><trkpt lat="51.6679210681" lon="-1.9305512868"><ele>82.33</ele><time>2015-05-20T09:35:54Z</time></trkpt><trkpt lat="51.6677321400" lon="-1.9303701539"><ele>82.81</ele><time>2015-05-20T09:36:13Z</time></trkpt><trkpt lat="51.6676225886" lon="-1.9302722532"><ele>82.81</ele><time>2015-05-20T09:36:28Z</time></trkpt><trkpt lat="51.6674821917" lon="-1.9302033540"><ele>82.33</ele><time>2015-05-20T09:36:47Z</time></trkpt><trkpt lat="51.6673816089" lon="-1.9303469360"><ele>80.89</ele><time>2015-05-20T09:37:07Z</time></trkpt><trkpt lat="51.6673122905" lon="-1.9305778574"><ele>81.37</ele><time>2015-05-20T09:37:24Z</time></trkpt><trkpt lat="51.6671867296" lon="-1.9308542926"><ele>81.37</ele><time>2015-05-20T09:37:45Z</time></trkpt><trkpt lat="51.6671224404" lon="-1.9310703781"><ele>81.37</ele><time>2015-05-20T09:38:01Z</time></trkpt><trkpt lat="51.6670235340" lon="-1.9313323125"><ele>81.85</ele><time>2015-05-20T09:38:16Z</time></trkpt><trkpt lat="51.6668869928" lon="-1.9316459633"><ele>81.37</ele><time>2015-05-20T09:38:35Z</time></trkpt><trkpt lat="51.6667930316" lon="-1.9318581931"><ele>81.85</ele><time>2015-05-20T09:38:52Z</time></trkpt><trkpt lat="51.6667667963" lon="-1.9319446944"><ele>82.33</ele><time>2015-05-20T09:38:57Z</time></trkpt><trkpt lat="51.6666530538" lon="-1.9322533999"><ele>81.85</ele><time>2015-05-20T09:39:21Z</time></trkpt><trkpt lat="51.6665262356" lon="-1.9325015880"><ele>82.33</ele><time>2015-05-20T09:39:42Z</time></trkpt><trkpt lat="51.6663881857" lon="-1.9326812122"><ele>82.33</ele><time>2015-05-20T09:40:01Z</time></trkpt><trkpt lat="51.6662404966" lon="-1.9329233654"><ele>82.33</ele><time>2015-05-20T09:40:20Z</time></trkpt><trkpt lat="51.6661271732" lon="-1.9331129640"><ele>82.33</ele><time>2015-05-20T09:40:39Z</time></trkpt><trkpt lat="51.6659406759" lon="-1.9333792571"><ele>81.85</ele><time>2015-05-20T09:41:00Z</time></trkpt><trkpt lat="51.6658130195" lon="-1.9336019643"><ele>81.85</ele><time>2015-05-20T09:41:21Z</time></trkpt><trkpt lat="51.6656422801" lon="-1.9338095840"><ele>81.85</ele><time>2015-05-20T09:41:43Z</time></trkpt><trkpt lat="51.6654911544" lon="-1.9340198860"><ele>82.33</ele><time>2015-05-20T09:42:02Z</time></trkpt><trkpt lat="51.6653882246" lon="-1.9342132565"><ele>82.33</ele><time>2015-05-20T09:42:21Z</time></trkpt><trkpt lat="51.6652114503" lon="-1.9344140869"><ele>81.85</ele><time>2015-05-20T09:42:41Z</time></trkpt><trkpt lat="51.6650076024" lon="-1.9345922023"><ele>82.81</ele><time>2015-05-20T09:43:03Z</time></trkpt><trkpt lat="51.6649216041" lon="-1.9345853291"><ele>82.81</ele><time>2015-05-20T09:43:14Z</time></trkpt><trkpt lat="51.6647982225" lon="-1.9344193675"><ele>82.81</ele><time>2015-05-20T09:43:31Z</time></trkpt><trkpt lat="51.6646703146" lon="-1.9342321996"><ele>83.29</ele><time>2015-05-20T09:43:50Z</time></trkpt><trkpt lat="51.6645703185" lon="-1.9340472948"><ele>83.29</ele><time>2015-05-20T09:44:04Z</time></trkpt><trkpt lat="51.6644863319" lon="-1.9339286909"><ele>82.81</ele><time>2015-05-20T09:44:20Z</time></trkpt><trkpt lat="51.6643611062" lon="-1.9336935785"><ele>82.81</ele><time>2015-05-20T09:44:37Z</time></trkpt><trkpt lat="51.6642228048" lon="-1.9334950112"><ele>82.81</ele><time>2015-05-20T09:44:53Z</time></trkpt><trkpt lat="51.6641453560" lon="-1.9333686121"><ele>83.29</ele><time>2015-05-20T09:45:08Z</time></trkpt><trkpt lat="51.6640332062" lon="-1.9331837073"><ele>83.29</ele><time>2015-05-20T09:45:22Z</time></trkpt><trkpt lat="51.6639069747" lon="-1.9329263829"><ele>82.33</ele><time>2015-05-20T09:45:40Z</time></trkpt><trkpt lat="51.6638525762" lon="-1.9327940326"><ele>82.33</ele><time>2015-05-20T09:45:56Z</time></trkpt><trkpt lat="51.6637455393" lon="-1.9326089602"><ele>82.81</ele><time>2015-05-20T09:46:10Z</time></trkpt><trkpt lat="51.6636564396" lon="-1.9324642885"><ele>82.81</ele><time>2015-05-20T09:46:25Z</time></trkpt><trkpt lat="51.6635147016" lon="-1.9322605245"><ele>82.81</ele><time>2015-05-20T09:46:43Z</time></trkpt><trkpt lat="51.6634551901" lon="-1.9321847521"><ele>82.81</ele><time>2015-05-20T09:46:54Z</time></trkpt><trkpt lat="51.6634129453" lon="-1.9322413299"><ele>82.81</ele><time>2015-05-20T09:47:00Z</time></trkpt><trkpt lat="51.6632700339" lon="-1.9324457645"><ele>82.33</ele><time>2015-05-20T09:47:19Z</time></trkpt><trkpt lat="51.6631681100" lon="-1.9324106444"><ele>82.81</ele><time>2015-05-20T09:47:34Z</time></trkpt><trkpt lat="51.6631492507" lon="-1.9323792122"><ele>82.81</ele><time>2015-05-20T09:47:41Z</time></trkpt><trkpt lat="51.6630421299" lon="-1.9321011007"><ele>82.81</ele><time>2015-05-20T09:47:57Z</time></trkpt><trkpt lat="51.6629286390" lon="-1.9318910502"><ele>82.33</ele><time>2015-05-20T09:48:15Z</time></trkpt><trkpt lat="51.6628108732" lon="-1.9316601288"><ele>82.33</ele><time>2015-05-20T09:48:31Z</time></trkpt><trkpt lat="51.6627097875" lon="-1.9314941671"><ele>82.33</ele><time>2015-05-20T09:48:45Z</time></trkpt><trkpt lat="51.6626081988" lon="-1.9313191529"><ele>82.33</ele><time>2015-05-20T09:48:59Z</time></trkpt><trkpt lat="51.6625203565" lon="-1.9311251957"><ele>82.33</ele><time>2015-05-20T09:49:13Z</time></trkpt><trkpt lat="51.6624299996" lon="-1.9308609981"><ele>81.85</ele><time>2015-05-20T09:49:30Z</time></trkpt><trkpt lat="51.6623577476" lon="-1.9306406379"><ele>82.33</ele><time>2015-05-20T09:49:45Z</time></trkpt><trkpt lat="51.6622612718" lon="-1.9304320961"><ele>82.33</ele><time>2015-05-20T09:50:01Z</time></trkpt><trkpt lat="51.6621368844" lon="-1.9302235544"><ele>81.85</ele><time>2015-05-20T09:50:17Z</time></trkpt><trkpt lat="51.6619949788" lon="-1.9300018530"><ele>82.33</ele><time>2015-05-20T09:50:37Z</time></trkpt><trkpt lat="51.6618962400" lon="-1.9298793096"><ele>81.85</ele><time>2015-05-20T09:50:55Z</time></trkpt><trkpt lat="51.6618552525" lon="-1.9298153557"><ele>81.85</ele><time>2015-05-20T09:51:12Z</time></trkpt><trkpt lat="51.6618574318" lon="-1.9297876116"><ele>78.48</ele><time>2015-05-20T09:51:29Z</time></trkpt><trkpt lat="51.6618574318" lon="-1.9297875278"><ele>81.37</ele><time>2015-05-20T09:51:31Z</time></trkpt><trkpt lat="51.6618575156" lon="-1.9297875278"><ele>86.18</ele><time>2015-05-20T09:51:34Z</time></trkpt><trkpt lat="51.6618575156" lon="-1.9297875278"><ele>78.97</ele><time>2015-05-20T09:51:35Z</time></trkpt><trkpt lat="51.6618607007" lon="-1.9298005197"><ele>83.29</ele><time>2015-05-20T09:51:37Z</time></trkpt><trkpt lat="51.6618624609" lon="-1.9298071414"><ele>83.29</ele><time>2015-05-20T09:51:38Z</time></trkpt><trkpt lat="51.6618659813" lon="-1.9298205525"><ele>87.62</ele><time>2015-05-20T09:51:40Z</time></trkpt><trkpt lat="51.6618675739" lon="-1.9298265874"><ele>84.25</ele><time>2015-05-20T09:51:41Z</time></trkpt><trkpt lat="51.6618719324" lon="-1.9297919702"><ele>81.85</ele><time>2015-05-20T09:51:43Z</time></trkpt><trkpt lat="51.6618840862" lon="-1.9297742844"><ele>82.33</ele><time>2015-05-20T09:52:06Z</time></trkpt><trkpt lat="51.6617674939" lon="-1.9295579474"><ele>81.85</ele><time>2015-05-20T09:52:23Z</time></trkpt><trkpt lat="51.6616798192" lon="-1.9293896388"><ele>82.33</ele><time>2015-05-20T09:52:38Z</time></trkpt><trkpt lat="51.6616145242" lon="-1.9291865453"><ele>82.81</ele><time>2015-05-20T09:52:53Z</time></trkpt><trkpt lat="51.6615074873" lon="-1.9289138820"><ele>82.81</ele><time>2015-05-20T09:53:08Z</time></trkpt><trkpt lat="51.6614593752" lon="-1.9287497643"><ele>82.81</ele><time>2015-05-20T09:53:22Z</time></trkpt><trkpt lat="51.6614467185" lon="-1.9286094513"><ele>83.29</ele><time>2015-05-20T09:53:36Z</time></trkpt><trkpt lat="51.6614641529" lon="-1.9283831399"><ele>82.81</ele><time>2015-05-20T09:53:51Z</time></trkpt><trkpt lat="51.6614613030" lon="-1.9281688146"><ele>82.33</ele><time>2015-05-20T09:54:05Z</time></trkpt><trkpt lat="51.6614457965" lon="-1.9279523101"><ele>82.81</ele><time>2015-05-20T09:54:19Z</time></trkpt><trkpt lat="51.6614490654" lon="-1.9280473609"><ele>82.33</ele><time>2015-05-20T09:54:35Z</time></trkpt><trkpt lat="51.6614345647" lon="-1.9279993325"><ele>82.81</ele><time>2015-05-20T09:54:41Z</time></trkpt><trkpt lat="51.6614058986" lon="-1.9277529046"><ele>82.33</ele><time>2015-05-20T09:54:55Z</time></trkpt><trkpt lat="51.6613921523" lon="-1.9276090711"><ele>82.81</ele><time>2015-05-20T09:55:03Z</time></trkpt><trkpt lat="51.6613869555" lon="-1.9273489807"><ele>82.33</ele><time>2015-05-20T09:55:18Z</time></trkpt><trkpt lat="51.6613387596" lon="-1.9270464778"><ele>82.33</ele><time>2015-05-20T09:55:34Z</time></trkpt><trkpt lat="51.6613243427" lon="-1.9269213360"><ele>82.81</ele><time>2015-05-20T09:55:41Z</time></trkpt><trkpt lat="51.6613323893" lon="-1.9268293027"><ele>82.33</ele><time>2015-05-20T09:55:45Z</time></trkpt><trkpt lat="51.6613288689" lon="-1.9267599843"><ele>82.33</ele><time>2015-05-20T09:55:48Z</time></trkpt><trkpt lat="51.6612834390" lon="-1.9265951961"><ele>81.85</ele><time>2015-05-20T09:55:57Z</time></trkpt><trkpt lat="51.6611225903" lon="-1.9263668731"><ele>82.33</ele><time>2015-05-20T09:56:16Z</time></trkpt><trkpt lat="51.6609778348" lon="-1.9262968842"><ele>81.85</ele><time>2015-05-20T09:56:35Z</time></trkpt><trkpt lat="51.6608998831" lon="-1.9262909330"><ele>81.85</ele><time>2015-05-20T09:56:42Z</time></trkpt><trkpt lat="51.6608593147" lon="-1.9262922741"><ele>82.33</ele><time>2015-05-20T09:56:46Z</time></trkpt><trkpt lat="51.6606830433" lon="-1.9264143147"><ele>82.33</ele><time>2015-05-20T09:57:04Z</time></trkpt><trkpt lat="51.6605898365" lon="-1.9265731517"><ele>82.81</ele><time>2015-05-20T09:57:20Z</time></trkpt><trkpt lat="51.6604461707" lon="-1.9267574698"><ele>82.81</ele><time>2015-05-20T09:57:39Z</time></trkpt><trkpt lat="51.6602990683" lon="-1.9268967770"><ele>82.33</ele><time>2015-05-20T09:57:59Z</time></trkpt><trkpt lat="51.6601521336" lon="-1.9267230202"><ele>82.81</ele><time>2015-05-20T09:58:17Z</time></trkpt><trkpt lat="51.6601356212" lon="-1.9266958628"><ele>82.33</ele><time>2015-05-20T09:58:19Z</time></trkpt><trkpt lat="51.6600671411" lon="-1.9264105428"><ele>82.33</ele><time>2015-05-20T09:58:37Z</time></trkpt><trkpt lat="51.6599768680" lon="-1.9262055214"><ele>82.33</ele><time>2015-05-20T09:58:54Z</time></trkpt><trkpt lat="51.6599111538" lon="-1.9260439184"><ele>82.81</ele><time>2015-05-20T09:59:05Z</time></trkpt><trkpt lat="51.6598290950" lon="-1.9257373922"><ele>82.33</ele><time>2015-05-20T09:59:25Z</time></trkpt><trkpt lat="51.6597604472" lon="-1.9255878590"><ele>82.33</ele><time>2015-05-20T09:59:40Z</time></trkpt><trkpt lat="51.6596765444" lon="-1.9254735298"><ele>81.85</ele><time>2015-05-20T09:59:55Z</time></trkpt><trkpt lat="51.6595033742" lon="-1.9252336398"><ele>81.85</ele><time>2015-05-20T10:00:14Z</time></trkpt><trkpt lat="51.6594167054" lon="-1.9251793250"><ele>82.33</ele><time>2015-05-20T10:00:34Z</time></trkpt><trkpt lat="51.6592501570" lon="-1.9254213944"><ele>82.81</ele><time>2015-05-20T10:00:54Z</time></trkpt><trkpt lat="51.6590492427" lon="-1.9258805551"><ele>82.33</ele><time>2015-05-20T10:01:14Z</time></trkpt><trkpt lat="51.6589852050" lon="-1.9260921981"><ele>82.33</ele><time>2015-05-20T10:01:29Z</time></trkpt><trkpt lat="51.6589033976" lon="-1.9263243768"><ele>82.81</ele><time>2015-05-20T10:01:44Z</time></trkpt><trkpt lat="51.6588402819" lon="-1.9265037496"><ele>81.85</ele><time>2015-05-20T10:01:58Z</time></trkpt><trkpt lat="51.6588091012" lon="-1.9266571384"><ele>82.81</ele><time>2015-05-20T10:02:07Z</time></trkpt><trkpt lat="51.6587989591" lon="-1.9267769996"><ele>82.81</ele><time>2015-05-20T10:02:13Z</time></trkpt><trkpt lat="51.6587609891" lon="-1.9268612377"><ele>82.33</ele><time>2015-05-20T10:02:20Z</time></trkpt><trkpt lat="51.6586083546" lon="-1.9270062447"><ele>82.81</ele><time>2015-05-20T10:02:36Z</time></trkpt><trkpt lat="51.6584414709" lon="-1.9271385111"><ele>82.81</ele><time>2015-05-20T10:02:53Z</time></trkpt><trkpt lat="51.6583211906" lon="-1.9272000343"><ele>82.81</ele><time>2015-05-20T10:03:10Z</time></trkpt><trkpt lat="51.6582726594" lon="-1.9272894692"><ele>82.33</ele><time>2015-05-20T10:03:26Z</time></trkpt><trkpt lat="51.6581567377" lon="-1.9276748691"><ele>82.81</ele><time>2015-05-20T10:03:45Z</time></trkpt><trkpt lat="51.6581310891" lon="-1.9279388152"><ele>81.85</ele><time>2015-05-20T10:03:59Z</time></trkpt><trkpt lat="51.6580129042" lon="-1.9280326925"><ele>82.81</ele><time>2015-05-20T10:04:18Z</time></trkpt><trkpt lat="51.6578307655" lon="-1.9278893620"><ele>82.81</ele><time>2015-05-20T10:04:36Z</time></trkpt><trkpt lat="51.6576795559" lon="-1.9277855940"><ele>82.81</ele><time>2015-05-20T10:04:52Z</time></trkpt><trkpt lat="51.6575405002" lon="-1.9277311116"><ele>83.29</ele><time>2015-05-20T10:05:09Z</time></trkpt><trkpt lat="51.6573887039" lon="-1.9276208058"><ele>82.81</ele><time>2015-05-20T10:05:21Z</time></trkpt><trkpt lat="51.6572388355" lon="-1.9275281858"><ele>82.81</ele><time>2015-05-20T10:05:38Z</time></trkpt><trkpt lat="51.6570732091" lon="-1.9274414331"><ele>83.77</ele><time>2015-05-20T10:05:55Z</time></trkpt><trkpt lat="51.6568726301" lon="-1.9273446221"><ele>82.81</ele><time>2015-05-20T10:06:13Z</time></trkpt><trkpt lat="51.6567669343" lon="-1.9275929779"><ele>82.81</ele><time>2015-05-20T10:06:30Z</time></trkpt><trkpt lat="51.6567340773" lon="-1.9277712610"><ele>82.33</ele><time>2015-05-20T10:06:47Z</time></trkpt><trkpt lat="51.6567324847" lon="-1.9280186109"><ele>82.81</ele><time>2015-05-20T10:07:04Z</time></trkpt><trkpt lat="51.6567391902" lon="-1.9280637056"><ele>82.81</ele><time>2015-05-20T10:07:06Z</time></trkpt><trkpt lat="51.6568136215" lon="-1.9283573236"><ele>82.33</ele><time>2015-05-20T10:07:23Z</time></trkpt><trkpt lat="51.6568576265" lon="-1.9285714813"><ele>82.33</ele><time>2015-05-20T10:07:39Z</time></trkpt><trkpt lat="51.6568965185" lon="-1.9288542867"><ele>82.33</ele><time>2015-05-20T10:07:56Z</time></trkpt><trkpt lat="51.6569082532" lon="-1.9290821068"><ele>82.33</ele><time>2015-05-20T10:08:13Z</time></trkpt><trkpt lat="51.6569555271" lon="-1.9293856993"><ele>82.33</ele><time>2015-05-20T10:08:28Z</time></trkpt><trkpt lat="51.6569794994" lon="-1.9296636432"><ele>81.85</ele><time>2015-05-20T10:08:42Z</time></trkpt><trkpt lat="51.6569878813" lon="-1.9297671597"><ele>81.85</ele><time>2015-05-20T10:08:49Z</time></trkpt><trkpt lat="51.6570152063" lon="-1.9299772102"><ele>81.85</ele><time>2015-05-20T10:09:03Z</time></trkpt><trkpt lat="51.6570301261" lon="-1.9299980812"><ele>81.85</ele><time>2015-05-20T10:09:05Z</time></trkpt><trkpt lat="51.6571405996" lon="-1.9301065430"><ele>82.33</ele><time>2015-05-20T10:09:13Z</time></trkpt><trkpt lat="51.6573384963" lon="-1.9302295893"><ele>81.85</ele><time>2015-05-20T10:09:29Z</time></trkpt><trkpt lat="51.6574777197" lon="-1.9303167611"><ele>81.85</ele><time>2015-05-20T10:09:45Z</time></trkpt><trkpt lat="51.6576759517" lon="-1.9304141589"><ele>81.37</ele><time>2015-05-20T10:10:01Z</time></trkpt><trkpt lat="51.6578128282" lon="-1.9305269793"><ele>81.37</ele><time>2015-05-20T10:10:18Z</time></trkpt><trkpt lat="51.6579604335" lon="-1.9306580722"><ele>81.85</ele><time>2015-05-20T10:10:34Z</time></trkpt><trkpt lat="51.6581299994" lon="-1.9307862315"><ele>81.85</ele><time>2015-05-20T10:10:52Z</time></trkpt><trkpt lat="51.6581938695" lon="-1.9308627583"><ele>81.37</ele><time>2015-05-20T10:11:06Z</time></trkpt><trkpt lat="51.6582413949" lon="-1.9309305679"><ele>81.85</ele><time>2015-05-20T10:11:10Z</time></trkpt><trkpt lat="51.6584348492" lon="-1.9310459029"><ele>81.85</ele><time>2015-05-20T10:11:25Z</time></trkpt><trkpt lat="51.6585691273" lon="-1.9311951846"><ele>81.85</ele><time>2015-05-20T10:11:40Z</time></trkpt><trkpt lat="51.6586612444" lon="-1.9312562887"><ele>81.37</ele><time>2015-05-20T10:11:54Z</time></trkpt><trkpt lat="51.6588488314" lon="-1.9311224297"><ele>81.37</ele><time>2015-05-20T10:12:10Z</time></trkpt><trkpt lat="51.6589213349" lon="-1.9309315737"><ele>81.37</ele><time>2015-05-20T10:12:27Z</time></trkpt><trkpt lat="51.6589244362" lon="-1.9309177436"><ele>81.37</ele><time>2015-05-20T10:12:29Z</time></trkpt><trkpt lat="51.6589738056" lon="-1.9307130575"><ele>81.85</ele><time>2015-05-20T10:12:43Z</time></trkpt><trkpt lat="51.6590471473" lon="-1.9305239618"><ele>81.85</ele><time>2015-05-20T10:12:56Z</time></trkpt><trkpt lat="51.6591400187" lon="-1.9303873368"><ele>82.33</ele><time>2015-05-20T10:13:09Z</time></trkpt><trkpt lat="51.6591651645" lon="-1.9303590059"><ele>81.85</ele><time>2015-05-20T10:13:30Z</time></trkpt><trkpt lat="51.6591670085" lon="-1.9303556532"><ele>81.37</ele><time>2015-05-20T10:13:36Z</time></trkpt><trkpt lat="51.6591660865" lon="-1.9303566590"><ele>82.33</ele><time>2015-05-20T10:14:01Z</time></trkpt><trkpt lat="51.6591440421" lon="-1.9303460978"><ele>81.85</ele><time>2015-05-20T10:14:23Z</time></trkpt><trkpt lat="51.6591490712" lon="-1.9303355366"><ele>81.85</ele><time>2015-05-20T10:14:48Z</time></trkpt><trkpt lat="51.6591557767" lon="-1.9303515460"><ele>82.33</ele><time>2015-05-20T10:15:01Z</time></trkpt><trkpt lat="51.6591622308" lon="-1.9303535577"><ele>78.00</ele><time>2015-05-20T10:15:04Z</time></trkpt><trkpt lat="51.6591622308" lon="-1.9303535577"><ele>85.69</ele><time>2015-05-20T10:15:05Z</time></trkpt><trkpt lat="51.6591631528" lon="-1.9303533901"><ele>82.33</ele><time>2015-05-20T10:15:07Z</time></trkpt><trkpt lat="51.6591593809" lon="-1.9303432480"><ele>82.33</ele><time>2015-05-20T10:15:24Z</time></trkpt><trkpt lat="51.6591508314" lon="-1.9303326029"><ele>82.81</ele><time>2015-05-20T10:15:34Z</time></trkpt><trkpt lat="51.6591056529" lon="-1.9302611891"><ele>81.85</ele><time>2015-05-20T10:15:47Z</time></trkpt><trkpt lat="51.6591046471" lon="-1.9302600995"><ele>81.85</ele><time>2015-05-20T10:16:10Z</time></trkpt><trkpt lat="51.6591092572" lon="-1.9302585907"><ele>82.33</ele><time>2015-05-20T10:16:36Z</time></trkpt><trkpt lat="51.6590580437" lon="-1.9302259013"><ele>81.85</ele><time>2015-05-20T10:16:53Z</time></trkpt><trkpt lat="51.6591308825" lon="-1.9303173479"><ele>83.29</ele><time>2015-05-20T10:17:13Z</time></trkpt><trkpt lat="51.6591554414" lon="-1.9303549826"><ele>83.29</ele><time>2015-05-20T10:17:37Z</time></trkpt><trkpt lat="51.6591724567" lon="-1.9303839002"><ele>85.69</ele><time>2015-05-20T10:17:56Z</time></trkpt><trkpt lat="51.6591812577" lon="-1.9303460978"><ele>83.29</ele><time>2015-05-20T10:18:11Z</time></trkpt><trkpt lat="51.6591644939" lon="-1.9303370453"><ele>83.29</ele><time>2015-05-20T10:18:31Z</time></trkpt><trkpt lat="51.6591628175" lon="-1.9303395599"><ele>83.29</ele><time>2015-05-20T10:18:56Z</time></trkpt><trkpt lat="51.6591714509" lon="-1.9303434156"><ele>83.29</ele><time>2015-05-20T10:19:27Z</time></trkpt><trkpt lat="51.6591740493" lon="-1.9303445891"><ele>83.29</ele><time>2015-05-20T10:19:50Z</time></trkpt><trkpt lat="51.6591701098" lon="-1.9303307589"><ele>84.25</ele><time>2015-05-20T10:20:18Z</time></trkpt><trkpt lat="51.6591177229" lon="-1.9302902743"><ele>77.52</ele><time>2015-05-20T10:20:30Z</time></trkpt><trkpt lat="51.6591142863" lon="-1.9302870892"><ele>83.77</ele><time>2015-05-20T10:20:31Z</time></trkpt><trkpt lat="51.6589733865" lon="-1.9301031902"><ele>82.33</ele><time>2015-05-20T10:20:58Z</time></trkpt><trkpt lat="51.6588938423" lon="-1.9300074689"><ele>82.81</ele><time>2015-05-20T10:21:12Z</time></trkpt></trkseg><trkseg><trkpt lat="51.6591598000" lon="-1.9303547312"><ele>83.77</ele><time>2015-05-20T10:22:11Z</time></trkpt><trkpt lat="51.6591437068" lon="-1.9302902743"><ele>84.25</ele><time>2015-05-20T10:22:21Z</time></trkpt><trkpt lat="51.6591130290" lon="-1.9302901905"><ele>82.81</ele><time>2015-05-20T10:22:23Z</time></trkpt><trkpt lat="51.6590976063" lon="-1.9302937947"><ele>83.29</ele><time>2015-05-20T10:22:32Z</time></trkpt><trkpt lat="51.6591494903" lon="-1.9303686451"><ele>84.25</ele><time>2015-05-20T10:22:46Z</time></trkpt><trkpt lat="51.6591267753" lon="-1.9303222094"><ele>84.25</ele><time>2015-05-20T10:22:58Z</time></trkpt><trkpt lat="51.6591637395" lon="-1.9303669687"><ele>84.73</ele><time>2015-05-20T10:23:16Z</time></trkpt><trkpt lat="51.6591805033" lon="-1.9303486962"><ele>84.25</ele><time>2015-05-20T10:23:29Z</time></trkpt><trkpt lat="51.6591805872" lon="-1.9303799607"><ele>84.73</ele><time>2015-05-20T10:23:50Z</time></trkpt><trkpt lat="51.6591727082" lon="-1.9303588383"><ele>84.25</ele><time>2015-05-20T10:24:15Z</time></trkpt><trkpt lat="51.6591684334" lon="-1.9303600956"><ele>85.21</ele><time>2015-05-20T10:24:43Z</time></trkpt><trkpt lat="51.6591795813" lon="-1.9303091336"><ele>84.73</ele><time>2015-05-20T10:24:58Z</time></trkpt><trkpt lat="51.6591794137" lon="-1.9303631969"><ele>84.73</ele><time>2015-05-20T10:25:17Z</time></trkpt><trkpt lat="51.6591733787" lon="-1.9303388055"><ele>84.73</ele><time>2015-05-20T10:25:42Z</time></trkpt><trkpt lat="51.6591732111" lon="-1.9303364586"><ele>85.21</ele><time>2015-05-20T10:26:09Z</time></trkpt><trkpt lat="51.6591701936" lon="-1.9303374644"><ele>84.25</ele><time>2015-05-20T10:26:34Z</time></trkpt><trkpt lat="51.6591704451" lon="-1.9303055294"><ele>78.97</ele><time>2015-05-20T10:26:54Z</time></trkpt><trkpt lat="51.6591704451" lon="-1.9303054456"><ele>85.21</ele><time>2015-05-20T10:26:55Z</time></trkpt><trkpt lat="51.6591704451" lon="-1.9303054456"><ele>92.42</ele><time>2015-05-20T10:26:56Z</time></trkpt><trkpt lat="51.6591699421" lon="-1.9303078763"><ele>84.73</ele><time>2015-05-20T10:26:58Z</time></trkpt><trkpt lat="51.6591786593" lon="-1.9303144980"><ele>84.25</ele><time>2015-05-20T10:27:18Z</time></trkpt><trkpt lat="51.6591768991" lon="-1.9303398952"><ele>84.73</ele><time>2015-05-20T10:27:40Z</time></trkpt><trkpt lat="51.6591842752" lon="-1.9303830620"><ele>84.25</ele><time>2015-05-20T10:28:04Z</time></trkpt><trkpt lat="51.6591784917" lon="-1.9303743448"><ele>84.73</ele><time>2015-05-20T10:28:27Z</time></trkpt><trkpt lat="51.6591705289" lon="-1.9303658791"><ele>85.21</ele><time>2015-05-20T10:28:45Z</time></trkpt><trkpt lat="51.6591562796" lon="-1.9303406496"><ele>84.73</ele><time>2015-05-20T10:29:04Z</time></trkpt><trkpt lat="51.6591639910" lon="-1.9303493667"><ele>84.73</ele><time>2015-05-20T10:29:31Z</time></trkpt><trkpt lat="51.6591672599" lon="-1.9303438347"><ele>84.73</ele><time>2015-05-20T10:29:53Z</time></trkpt><trkpt lat="51.6591667570" lon="-1.9303396437"><ele>85.69</ele><time>2015-05-20T10:30:20Z</time></trkpt><trkpt lat="51.6591735464" lon="-1.9303410687"><ele>85.69</ele><time>2015-05-20T10:30:45Z</time></trkpt><trkpt lat="51.6591762286" lon="-1.9303410687"><ele>85.69</ele><time>2015-05-20T10:31:05Z</time></trkpt><trkpt lat="51.6591756418" lon="-1.9303821400"><ele>86.18</ele><time>2015-05-20T10:31:29Z</time></trkpt><trkpt lat="51.6591820121" lon="-1.9303825591"><ele>85.21</ele><time>2015-05-20T10:31:50Z</time></trkpt><trkpt lat="51.6591834370" lon="-1.9303719979"><ele>85.69</ele><time>2015-05-20T10:32:14Z</time></trkpt><trkpt lat="51.6591847781" lon="-1.9303213712"><ele>85.69</ele><time>2015-05-20T10:32:34Z</time></trkpt><trkpt lat="51.6592079122" lon="-1.9302885141"><ele>85.21</ele><time>2015-05-20T10:32:54Z</time></trkpt><trkpt lat="51.6592081636" lon="-1.9302865025"><ele>85.69</ele><time>2015-05-20T10:33:22Z</time></trkpt><trkpt lat="51.6592064872" lon="-1.9302809704"><ele>85.69</ele><time>2015-05-20T10:33:49Z</time></trkpt><trkpt lat="51.6592032183" lon="-1.9302719180"><ele>85.69</ele><time>2015-05-20T10:34:13Z</time></trkpt><trkpt lat="51.6592008714" lon="-1.9302669726"><ele>86.66</ele><time>2015-05-20T10:34:39Z</time></trkpt><trkpt lat="51.6592055652" lon="-1.9302694872"><ele>86.18</ele><time>2015-05-20T10:34:58Z</time></trkpt><trkpt lat="51.6592045594" lon="-1.9302730914"><ele>86.66</ele><time>2015-05-20T10:35:24Z</time></trkpt><trkpt lat="51.6592036374" lon="-1.9302689005"><ele>86.18</ele><time>2015-05-20T10:35:54Z</time></trkpt><trkpt lat="51.6592048109" lon="-1.9302695710"><ele>86.66</ele><time>2015-05-20T10:36:21Z</time></trkpt><trkpt lat="51.6592095047" lon="-1.9302729238"><ele>86.66</ele><time>2015-05-20T10:36:44Z</time></trkpt><trkpt lat="51.6592093371" lon="-1.9302638713"><ele>87.14</ele><time>2015-05-20T10:36:56Z</time></trkpt><trkpt lat="51.6592110973" lon="-1.9302701578"><ele>87.62</ele><time>2015-05-20T10:37:20Z</time></trkpt><trkpt lat="51.6592212394" lon="-1.9302689005"><ele>86.18</ele><time>2015-05-20T10:37:38Z</time></trkpt><trkpt lat="51.6592836007" lon="-1.9303030986"><ele>87.62</ele><time>2015-05-20T10:37:56Z</time></trkpt><trkpt lat="51.6592955031" lon="-1.9303362072"><ele>84.25</ele><time>2015-05-20T10:37:59Z</time></trkpt><trkpt lat="51.6592983529" lon="-1.9303333573"><ele>84.25</ele><time>2015-05-20T10:38:00Z</time></trkpt><trkpt lat="51.6592996940" lon="-1.9303315971"><ele>87.62</ele><time>2015-05-20T10:38:04Z</time></trkpt><trkpt lat="51.6592582036" lon="-1.9303674717"><ele>88.58</ele><time>2015-05-20T10:38:21Z</time></trkpt><trkpt lat="51.6592599638" lon="-1.9304254744"><ele>87.14</ele><time>2015-05-20T10:38:34Z</time></trkpt><trkpt lat="51.6594241653" lon="-1.9303537253"><ele>87.14</ele><time>2015-05-20T10:39:11Z</time></trkpt><trkpt lat="51.6593302879" lon="-1.9303404819"><ele>86.18</ele><time>2015-05-20T10:39:32Z</time></trkpt><trkpt lat="51.6592873726" lon="-1.9302864186"><ele>87.14</ele><time>2015-05-20T10:39:47Z</time></trkpt><trkpt lat="51.6591990273" lon="-1.9302558247"><ele>86.66</ele><time>2015-05-20T10:40:01Z</time></trkpt><trkpt lat="51.6592018772" lon="-1.9302742649"><ele>86.66</ele><time>2015-05-20T10:40:17Z</time></trkpt><trkpt lat="51.6591945011" lon="-1.9303409010"><ele>87.62</ele><time>2015-05-20T10:40:33Z</time></trkpt><trkpt lat="51.6591846105" lon="-1.9303445891"><ele>87.14</ele><time>2015-05-20T10:40:48Z</time></trkpt><trkpt lat="51.6591898073" lon="-1.9303450920"><ele>86.66</ele><time>2015-05-20T10:41:10Z</time></trkpt><trkpt lat="51.6591853648" lon="-1.9303590897"><ele>87.62</ele><time>2015-05-20T10:41:37Z</time></trkpt><trkpt lat="51.6591759771" lon="-1.9301791303"><ele>86.18</ele><time>2015-05-20T10:41:52Z</time></trkpt><trkpt lat="51.6591760609" lon="-1.9300080556"><ele>85.69</ele><time>2015-05-20T10:42:02Z</time></trkpt><trkpt lat="51.6591843590" lon="-1.9299239852"><ele>86.66</ele><time>2015-05-20T10:42:16Z</time></trkpt><trkpt lat="51.6592019610" lon="-1.9298772980"><ele>86.66</ele><time>2015-05-20T10:42:30Z</time></trkpt><trkpt lat="51.6592029668" lon="-1.9298655633"><ele>86.66</ele><time>2015-05-20T10:42:53Z</time></trkpt><trkpt lat="51.6591940820" lon="-1.9299189560"><ele>85.69</ele><time>2015-05-20T10:43:12Z</time></trkpt><trkpt lat="51.6591753066" lon="-1.9299627095"><ele>85.69</ele><time>2015-05-20T10:43:33Z</time></trkpt><trkpt lat="51.6591497418" lon="-1.9300202094"><ele>85.21</ele><time>2015-05-20T10:43:38Z</time></trkpt><trkpt lat="51.6590967681" lon="-1.9301328622"><ele>85.69</ele><time>2015-05-20T10:43:54Z</time></trkpt><trkpt lat="51.6591027193" lon="-1.9301831536"><ele>85.69</ele><time>2015-05-20T10:44:14Z</time></trkpt><trkpt lat="51.6591639910" lon="-1.9302616920"><ele>86.66</ele><time>2015-05-20T10:44:31Z</time></trkpt><trkpt lat="51.6591686010" lon="-1.9302843232"><ele>86.18</ele><time>2015-05-20T10:44:53Z</time></trkpt><trkpt lat="51.6591585428" lon="-1.9303621072"><ele>87.14</ele><time>2015-05-20T10:45:07Z</time></trkpt><trkpt lat="51.6591611411" lon="-1.9303537253"><ele>87.62</ele><time>2015-05-20T10:45:23Z</time></trkpt><trkpt lat="51.6591589618" lon="-1.9303438347"><ele>87.62</ele><time>2015-05-20T10:45:47Z</time></trkpt><trkpt lat="51.6591666732" lon="-1.9303631969"><ele>87.14</ele><time>2015-05-20T10:46:05Z</time></trkpt><trkpt lat="51.6591511667" lon="-1.9303785358"><ele>87.14</ele><time>2015-05-20T10:46:21Z</time></trkpt><trkpt lat="51.6590972710" lon="-1.9305380434"><ele>87.14</ele><time>2015-05-20T10:46:33Z</time></trkpt><trkpt lat="51.6590627376" lon="-1.9305959623"><ele>86.66</ele><time>2015-05-20T10:46:46Z</time></trkpt><trkpt lat="51.6590168048" lon="-1.9307358563"><ele>86.66</ele><time>2015-05-20T10:47:01Z</time></trkpt><trkpt lat="51.6589685250" lon="-1.9309060927"><ele>86.66</ele><time>2015-05-20T10:47:16Z</time></trkpt><trkpt lat="51.6589261964" lon="-1.9310034066"><ele>86.66</ele><time>2015-05-20T10:47:29Z</time></trkpt><trkpt lat="51.6589168925" lon="-1.9310401194"><ele>87.14</ele><time>2015-05-20T10:47:52Z</time></trkpt><trkpt lat="51.6588650923" lon="-1.9312021416"><ele>87.14</ele><time>2015-05-20T10:48:08Z</time></trkpt><trkpt lat="51.6588586383" lon="-1.9312261138"><ele>87.14</ele><time>2015-05-20T10:48:10Z</time></trkpt><trkpt lat="51.6587396152" lon="-1.9312612340"><ele>86.66</ele><time>2015-05-20T10:48:22Z</time></trkpt><trkpt lat="51.6586557124" lon="-1.9311744813"><ele>86.66</ele><time>2015-05-20T10:48:31Z</time></trkpt><trkpt lat="51.6586286388" lon="-1.9311529398"><ele>86.66</ele><time>2015-05-20T10:48:34Z</time></trkpt><trkpt lat="51.6585003957" lon="-1.9310421310"><ele>86.18</ele><time>2015-05-20T10:48:47Z</time></trkpt><trkpt lat="51.6584180854" lon="-1.9309759140"><ele>86.66</ele><time>2015-05-20T10:48:56Z</time></trkpt><trkpt lat="51.6583990585" lon="-1.9309641793"><ele>86.18</ele><time>2015-05-20T10:48:58Z</time></trkpt><trkpt lat="51.6582496930" lon="-1.9308214355"><ele>86.66</ele><time>2015-05-20T10:49:15Z</time></trkpt><trkpt lat="51.6581354477" lon="-1.9307313301"><ele>86.66</ele><time>2015-05-20T10:49:28Z</time></trkpt><trkpt lat="51.6580323502" lon="-1.9306508638"><ele>86.18</ele><time>2015-05-20T10:49:39Z</time></trkpt><trkpt lat="51.6580045223" lon="-1.9306300767"><ele>86.18</ele><time>2015-05-20T10:49:42Z</time></trkpt><trkpt lat="51.6579802986" lon="-1.9306168333"><ele>86.18</ele><time>2015-05-20T10:49:46Z</time></trkpt><trkpt lat="51.6579488665" lon="-1.9306010753"><ele>86.66</ele><time>2015-05-20T10:49:49Z</time></trkpt><trkpt lat="51.6578341182" lon="-1.9305251352"><ele>86.66</ele><time>2015-05-20T10:50:01Z</time></trkpt><trkpt lat="51.6578295920" lon="-1.9305156637"><ele>86.18</ele><time>2015-05-20T10:50:02Z</time></trkpt><trkpt lat="51.6577357985" lon="-1.9304345269"><ele>86.18</ele><time>2015-05-20T10:50:13Z</time></trkpt><trkpt lat="51.6576057114" lon="-1.9303519651"><ele>86.18</ele><time>2015-05-20T10:50:27Z</time></trkpt><trkpt lat="51.6575791407" lon="-1.9303488638"><ele>86.66</ele><time>2015-05-20T10:50:31Z</time></trkpt><trkpt lat="51.6575586889" lon="-1.9303353690"><ele>86.18</ele><time>2015-05-20T10:50:33Z</time></trkpt><trkpt lat="51.6575259157" lon="-1.9302828982"><ele>86.18</ele><time>2015-05-20T10:50:46Z</time></trkpt><trkpt lat="51.6575387400" lon="-1.9302700739"><ele>86.18</ele><time>2015-05-20T10:51:14Z</time></trkpt><trkpt lat="51.6575368959" lon="-1.9302761089"><ele>86.18</ele><time>2015-05-20T10:51:34Z</time></trkpt><trkpt lat="51.6575379018" lon="-1.9302738458"><ele>85.69</ele><time>2015-05-20T10:51:48Z</time></trkpt><trkpt lat="51.6575252451" lon="-1.9302640390"><ele>86.18</ele><time>2015-05-20T10:52:07Z</time></trkpt><trkpt lat="51.6575001832" lon="-1.9302476104"><ele>85.69</ele><time>2015-05-20T10:52:10Z</time></trkpt><trkpt lat="51.6574102454" lon="-1.9302251469"><ele>86.18</ele><time>2015-05-20T10:52:18Z</time></trkpt><trkpt lat="51.6573786456" lon="-1.9301988278"><ele>85.69</ele><time>2015-05-20T10:52:21Z</time></trkpt><trkpt lat="51.6573396698" lon="-1.9301750232"><ele>85.69</ele><time>2015-05-20T10:52:25Z</time></trkpt><trkpt lat="51.6573222354" lon="-1.9301599357"><ele>86.18</ele><time>2015-05-20T10:52:27Z</time></trkpt><trkpt lat="51.6572532523" lon="-1.9301054534"><ele>86.66</ele><time>2015-05-20T10:52:34Z</time></trkpt><trkpt lat="51.6572284419" lon="-1.9300855044"><ele>86.66</ele><time>2015-05-20T10:52:36Z</time></trkpt><trkpt lat="51.6571051441" lon="-1.9299208838"><ele>86.18</ele><time>2015-05-20T10:52:48Z</time></trkpt><trkpt lat="51.6570623964" lon="-1.9297987595"><ele>85.69</ele><time>2015-05-20T10:52:55Z</time></trkpt><trkpt lat="51.6570345685" lon="-1.9295343943"><ele>85.69</ele><time>2015-05-20T10:53:06Z</time></trkpt><trkpt lat="51.6570250969" lon="-1.9293456338"><ele>85.69</ele><time>2015-05-20T10:53:16Z</time></trkpt><trkpt lat="51.6569864564" lon="-1.9291010499"><ele>85.69</ele><time>2015-05-20T10:53:29Z</time></trkpt><trkpt lat="51.6569755599" lon="-1.9290728867"><ele>85.69</ele><time>2015-05-20T10:53:31Z</time></trkpt><trkpt lat="51.6569282860" lon="-1.9288816117"><ele>85.69</ele><time>2015-05-20T10:53:41Z</time></trkpt><trkpt lat="51.6568979435" lon="-1.9287118781"><ele>85.21</ele><time>2015-05-20T10:53:52Z</time></trkpt><trkpt lat="51.6568989493" lon="-1.9286932703"><ele>84.73</ele><time>2015-05-20T10:53:53Z</time></trkpt><trkpt lat="51.6568632424" lon="-1.9284558948"><ele>85.21</ele><time>2015-05-20T10:54:03Z</time></trkpt><trkpt lat="51.6568391025" lon="-1.9283137377"><ele>85.69</ele><time>2015-05-20T10:54:08Z</time></trkpt><trkpt lat="51.6568059102" lon="-1.9280229695"><ele>85.21</ele><time>2015-05-20T10:54:22Z</time></trkpt><trkpt lat="51.6567872185" lon="-1.9276341330"><ele>84.73</ele><time>2015-05-20T10:54:35Z</time></trkpt><trkpt lat="51.6568219196" lon="-1.9274416007"><ele>85.21</ele><time>2015-05-20T10:54:43Z</time></trkpt><trkpt lat="51.6569888033" lon="-1.9273511600"><ele>84.73</ele><time>2015-05-20T10:54:58Z</time></trkpt><trkpt lat="51.6570514161" lon="-1.9273914769"><ele>84.73</ele><time>2015-05-20T10:55:04Z</time></trkpt><trkpt lat="51.6570960078" lon="-1.9274132699"><ele>84.73</ele><time>2015-05-20T10:55:07Z</time></trkpt><trkpt lat="51.6572321299" lon="-1.9275338855"><ele>84.73</ele><time>2015-05-20T10:55:18Z</time></trkpt><trkpt lat="51.6572649870" lon="-1.9275586959"><ele>84.73</ele><time>2015-05-20T10:55:22Z</time></trkpt><trkpt lat="51.6573331319" lon="-1.9276006054"><ele>84.73</ele><time>2015-05-20T10:55:27Z</time></trkpt><trkpt lat="51.6575344652" lon="-1.9277126715"><ele>85.21</ele><time>2015-05-20T10:55:40Z</time></trkpt><trkpt lat="51.6575578507" lon="-1.9277285133"><ele>84.73</ele><time>2015-05-20T10:55:42Z</time></trkpt><trkpt lat="51.6577088088" lon="-1.9278241508"><ele>84.73</ele><time>2015-05-20T10:55:53Z</time></trkpt><trkpt lat="51.6577533167" lon="-1.9278455246"><ele>84.73</ele><time>2015-05-20T10:55:56Z</time></trkpt><trkpt lat="51.6578694899" lon="-1.9279176090"><ele>84.25</ele><time>2015-05-20T10:56:04Z</time></trkpt><trkpt lat="51.6579998285" lon="-1.9280306809"><ele>84.73</ele><time>2015-05-20T10:56:18Z</time></trkpt><trkpt lat="51.6580229625" lon="-1.9280340336"><ele>83.77</ele><time>2015-05-20T10:56:23Z</time></trkpt><trkpt lat="51.6581232101" lon="-1.9278896134"><ele>83.77</ele><time>2015-05-20T10:56:36Z</time></trkpt><trkpt lat="51.6581286583" lon="-1.9277050439"><ele>84.25</ele><time>2015-05-20T10:56:47Z</time></trkpt><trkpt lat="51.6581237130" lon="-1.9274531677"><ele>84.73</ele><time>2015-05-20T10:57:01Z</time></trkpt><trkpt lat="51.6581393871" lon="-1.9272779860"><ele>84.25</ele><time>2015-05-20T10:57:17Z</time></trkpt><trkpt lat="51.6581999883" lon="-1.9271960109"><ele>83.77</ele><time>2015-05-20T10:57:31Z</time></trkpt><trkpt lat="51.6582552250" lon="-1.9271432050"><ele>83.29</ele><time>2015-05-20T10:57:45Z</time></trkpt><trkpt lat="51.6583320033" lon="-1.9270820171"><ele>83.29</ele><time>2015-05-20T10:57:53Z</time></trkpt><trkpt lat="51.6584510263" lon="-1.9269106071"><ele>83.29</ele><time>2015-05-20T10:58:03Z</time></trkpt><trkpt lat="51.6585076880" lon="-1.9268232677"><ele>83.77</ele><time>2015-05-20T10:58:09Z</time></trkpt><trkpt lat="51.6587186605" lon="-1.9265708886"><ele>83.29</ele><time>2015-05-20T10:58:24Z</time></trkpt><trkpt lat="51.6588126216" lon="-1.9263051823"><ele>82.81</ele><time>2015-05-20T10:58:39Z</time></trkpt><trkpt lat="51.6589197423" lon="-1.9260705728"><ele>83.29</ele><time>2015-05-20T10:58:55Z</time></trkpt><trkpt lat="51.6589744762" lon="-1.9258164335"><ele>83.29</ele><time>2015-05-20T10:59:11Z</time></trkpt><trkpt lat="51.6590469796" lon="-1.9255969115"><ele>82.81</ele><time>2015-05-20T10:59:26Z</time></trkpt><trkpt lat="51.6591980215" lon="-1.9253018685"><ele>83.29</ele><time>2015-05-20T10:59:42Z</time></trkpt><trkpt lat="51.6593486443" lon="-1.9251861144"><ele>82.81</ele><time>2015-05-20T10:59:58Z</time></trkpt><trkpt lat="51.6595073137" lon="-1.9252695143"><ele>82.33</ele><time>2015-05-20T11:00:14Z</time></trkpt><trkpt lat="51.6595685016" lon="-1.9253112562"><ele>82.81</ele><time>2015-05-20T11:00:28Z</time></trkpt><trkpt lat="51.6596585233" lon="-1.9253941532"><ele>82.33</ele><time>2015-05-20T11:00:40Z</time></trkpt><trkpt lat="51.6597564239" lon="-1.9255340472"><ele>82.81</ele><time>2015-05-20T11:00:52Z</time></trkpt><trkpt lat="51.6598114930" lon="-1.9257251546"><ele>83.29</ele><time>2015-05-20T11:00:59Z</time></trkpt><trkpt lat="51.6598519776" lon="-1.9257955626"><ele>82.81</ele><time>2015-05-20T11:01:03Z</time></trkpt><trkpt lat="51.6598896962" lon="-1.9259401504"><ele>82.81</ele><time>2015-05-20T11:01:10Z</time></trkpt><trkpt lat="51.6599130817" lon="-1.9260404818"><ele>83.29</ele><time>2015-05-20T11:01:14Z</time></trkpt><trkpt lat="51.6599429213" lon="-1.9260864984"><ele>82.81</ele><time>2015-05-20T11:01:18Z</time></trkpt><trkpt lat="51.6599661391" lon="-1.9261295814"><ele>83.29</ele><time>2015-05-20T11:01:21Z</time></trkpt><trkpt lat="51.6600435041" lon="-1.9263140671"><ele>83.77</ele><time>2015-05-20T11:01:36Z</time></trkpt><trkpt lat="51.6600517184" lon="-1.9263443258"><ele>83.77</ele><time>2015-05-20T11:01:38Z</time></trkpt><trkpt lat="51.6600837372" lon="-1.9264539611"><ele>83.77</ele><time>2015-05-20T11:01:46Z</time></trkpt><trkpt lat="51.6601036862" lon="-1.9265620876"><ele>83.29</ele><time>2015-05-20T11:01:53Z</time></trkpt><trkpt lat="51.6601404827" lon="-1.9266784284"><ele>83.29</ele><time>2015-05-20T11:02:02Z</time></trkpt><trkpt lat="51.6602206975" lon="-1.9268356729"><ele>83.77</ele><time>2015-05-20T11:02:15Z</time></trkpt><trkpt lat="51.6603035107" lon="-1.9268805999"><ele>83.29</ele><time>2015-05-20T11:02:25Z</time></trkpt><trkpt lat="51.6603641957" lon="-1.9268372655"><ele>82.81</ele><time>2015-05-20T11:02:31Z</time></trkpt><trkpt lat="51.6604846437" lon="-1.9266854692"><ele>83.29</ele><time>2015-05-20T11:02:47Z</time></trkpt><trkpt lat="51.6604926065" lon="-1.9266734831"><ele>83.77</ele><time>2015-05-20T11:02:48Z</time></trkpt><trkpt lat="51.6605146509" lon="-1.9266315736"><ele>83.77</ele><time>2015-05-20T11:02:51Z</time></trkpt><trkpt lat="51.6606091149" lon="-1.9264444057"><ele>83.29</ele><time>2015-05-20T11:03:05Z</time></trkpt><trkpt lat="51.6607319098" lon="-1.9263274781"><ele>83.29</ele><time>2015-05-20T11:03:20Z</time></trkpt><trkpt lat="51.6608683672" lon="-1.9262702297"><ele>83.77</ele><time>2015-05-20T11:03:34Z</time></trkpt><trkpt lat="51.6609908268" lon="-1.9263163302"><ele>83.29</ele><time>2015-05-20T11:03:48Z</time></trkpt><trkpt lat="51.6611186508" lon="-1.9264127221"><ele>83.29</ele><time>2015-05-20T11:04:03Z</time></trkpt><trkpt lat="51.6612106841" lon="-1.9264572300"><ele>83.29</ele><time>2015-05-20T11:04:11Z</time></trkpt><trkpt lat="51.6612404399" lon="-1.9265186694"><ele>83.77</ele><time>2015-05-20T11:04:15Z</time></trkpt><trkpt lat="51.6612592991" lon="-1.9265682064"><ele>84.25</ele><time>2015-05-20T11:04:18Z</time></trkpt><trkpt lat="51.6613066569" lon="-1.9266768359"><ele>83.77</ele><time>2015-05-20T11:04:26Z</time></trkpt><trkpt lat="51.6613336466" lon="-1.9268641714"><ele>84.25</ele><time>2015-05-20T11:04:38Z</time></trkpt><trkpt lat="51.6613443755" lon="-1.9269241858"><ele>84.25</ele><time>2015-05-20T11:04:42Z</time></trkpt><trkpt lat="51.6613724548" lon="-1.9271432050"><ele>83.29</ele><time>2015-05-20T11:04:55Z</time></trkpt><trkpt lat="51.6613805853" lon="-1.9272336457"><ele>83.77</ele><time>2015-05-20T11:05:00Z</time></trkpt><trkpt lat="51.6613897216" lon="-1.9273032155"><ele>84.25</ele><time>2015-05-20T11:05:04Z</time></trkpt><trkpt lat="51.6613974329" lon="-1.9274629746"><ele>84.25</ele><time>2015-05-20T11:05:13Z</time></trkpt><trkpt lat="51.6614015400" lon="-1.9275793992"><ele>84.73</ele><time>2015-05-20T11:05:20Z</time></trkpt><trkpt lat="51.6614162922" lon="-1.9277291000"><ele>83.77</ele><time>2015-05-20T11:05:30Z</time></trkpt><trkpt lat="51.6614221595" lon="-1.9279444311"><ele>84.25</ele><time>2015-05-20T11:05:43Z</time></trkpt><trkpt lat="51.6614167951" lon="-1.9279718399"><ele>83.77</ele><time>2015-05-20T11:05:45Z</time></trkpt><trkpt lat="51.6614284460" lon="-1.9280449301"><ele>83.77</ele><time>2015-05-20T11:05:49Z</time></trkpt><trkpt lat="51.6614516638" lon="-1.9282658771"><ele>84.25</ele><time>2015-05-20T11:06:02Z</time></trkpt><trkpt lat="51.6614366602" lon="-1.9284866564"><ele>84.25</ele><time>2015-05-20T11:06:15Z</time></trkpt><trkpt lat="51.6614397615" lon="-1.9285864849"><ele>84.25</ele><time>2015-05-20T11:06:22Z</time></trkpt><trkpt lat="51.6614524182" lon="-1.9287064299"><ele>84.25</ele><time>2015-05-20T11:06:29Z</time></trkpt><trkpt lat="51.6614885442" lon="-1.9288502634"><ele>83.29</ele><time>2015-05-20T11:06:39Z</time></trkpt><trkpt lat="51.6615288612" lon="-1.9289528579"><ele>83.77</ele><time>2015-05-20T11:06:49Z</time></trkpt><trkpt lat="51.6615512408" lon="-1.9290138781"><ele>83.29</ele><time>2015-05-20T11:06:53Z</time></trkpt><trkpt lat="51.6615652386" lon="-1.9291039836"><ele>83.77</ele><time>2015-05-20T11:06:58Z</time></trkpt><trkpt lat="51.6615873668" lon="-1.9292270299"><ele>84.25</ele><time>2015-05-20T11:07:04Z</time></trkpt><trkpt lat="51.6616071481" lon="-1.9292860385"><ele>83.77</ele><time>2015-05-20T11:07:08Z</time></trkpt><trkpt lat="51.6616509017" lon="-1.9293624815"><ele>83.29</ele><time>2015-05-20T11:07:14Z</time></trkpt><trkpt lat="51.6616628878" lon="-1.9293979369"><ele>83.29</ele><time>2015-05-20T11:07:16Z</time></trkpt><trkpt lat="51.6617173702" lon="-1.9295917265"><ele>83.29</ele><time>2015-05-20T11:07:27Z</time></trkpt><trkpt lat="51.6617405042" lon="-1.9296359830"><ele>83.29</ele><time>2015-05-20T11:07:31Z</time></trkpt><trkpt lat="51.6617742833" lon="-1.9296984281"><ele>84.25</ele><time>2015-05-20T11:07:36Z</time></trkpt><trkpt lat="51.6617898736" lon="-1.9297255017"><ele>83.29</ele><time>2015-05-20T11:07:38Z</time></trkpt><trkpt lat="51.6618104931" lon="-1.9297713507"><ele>83.77</ele><time>2015-05-20T11:07:42Z</time></trkpt><trkpt lat="51.6618944798" lon="-1.9299257454"><ele>83.77</ele><time>2015-05-20T11:07:55Z</time></trkpt><trkpt lat="51.6619360540" lon="-1.9299832452"><ele>83.77</ele><time>2015-05-20T11:08:01Z</time></trkpt><trkpt lat="51.6619836632" lon="-1.9300826546"><ele>83.77</ele><time>2015-05-20T11:08:08Z</time></trkpt><trkpt lat="51.6620047018" lon="-1.9301130809"><ele>83.77</ele><time>2015-05-20T11:08:11Z</time></trkpt><trkpt lat="51.6620556638" lon="-1.9301725924"><ele>83.77</ele><time>2015-05-20T11:08:18Z</time></trkpt><trkpt lat="51.6621282510" lon="-1.9302672241"><ele>83.77</ele><time>2015-05-20T11:08:28Z</time></trkpt><trkpt lat="51.6621480323" lon="-1.9302953035"><ele>84.25</ele><time>2015-05-20T11:08:30Z</time></trkpt><trkpt lat="51.6622575838" lon="-1.9304492790"><ele>84.73</ele><time>2015-05-20T11:08:44Z</time></trkpt><trkpt lat="51.6622792091" lon="-1.9304784480"><ele>84.73</ele><time>2015-05-20T11:08:47Z</time></trkpt><trkpt lat="51.6623061989" lon="-1.9305093773"><ele>84.73</ele><time>2015-05-20T11:08:50Z</time></trkpt><trkpt lat="51.6623362061" lon="-1.9305646978"><ele>85.21</ele><time>2015-05-20T11:08:56Z</time></trkpt><trkpt lat="51.6623645369" lon="-1.9306034222"><ele>84.25</ele><time>2015-05-20T11:09:00Z</time></trkpt><trkpt lat="51.6624347772" lon="-1.9307767600"><ele>85.21</ele><time>2015-05-20T11:09:13Z</time></trkpt><trkpt lat="51.6624362860" lon="-1.9307910092"><ele>84.73</ele><time>2015-05-20T11:09:14Z</time></trkpt><trkpt lat="51.6624530498" lon="-1.9308868982"><ele>84.73</ele><time>2015-05-20T11:09:20Z</time></trkpt><trkpt lat="51.6624708194" lon="-1.9310003892"><ele>84.73</ele><time>2015-05-20T11:09:26Z</time></trkpt><trkpt lat="51.6624916904" lon="-1.9310771674"><ele>83.77</ele><time>2015-05-20T11:09:31Z</time></trkpt><trkpt lat="51.6625652835" lon="-1.9312630780"><ele>84.73</ele><time>2015-05-20T11:09:45Z</time></trkpt><trkpt lat="51.6625943687" lon="-1.9313176442"><ele>84.25</ele><time>2015-05-20T11:09:50Z</time></trkpt><trkpt lat="51.6626199335" lon="-1.9313510880"><ele>84.25</ele><time>2015-05-20T11:09:53Z</time></trkpt><trkpt lat="51.6627066862" lon="-1.9314888865"><ele>83.77</ele><time>2015-05-20T11:10:06Z</time></trkpt><trkpt lat="51.6627377830" lon="-1.9315499905"><ele>84.25</ele><time>2015-05-20T11:10:11Z</time></trkpt><trkpt lat="51.6628221050" lon="-1.9316817541"><ele>83.77</ele><time>2015-05-20T11:10:22Z</time></trkpt><trkpt lat="51.6628777608" lon="-1.9318048842"><ele>84.73</ele><time>2015-05-20T11:10:32Z</time></trkpt><trkpt lat="51.6628962010" lon="-1.9318469614"><ele>84.73</ele><time>2015-05-20T11:10:35Z</time></trkpt><trkpt lat="51.6629868932" lon="-1.9320187904"><ele>84.73</ele><time>2015-05-20T11:10:50Z</time></trkpt><trkpt lat="51.6630698740" lon="-1.9321948942"><ele>85.21</ele><time>2015-05-20T11:11:04Z</time></trkpt><trkpt lat="51.6631236020" lon="-1.9323228858"><ele>85.21</ele><time>2015-05-20T11:11:12Z</time></trkpt><trkpt lat="51.6632397752" lon="-1.9324452616"><ele>85.21</ele><time>2015-05-20T11:11:25Z</time></trkpt><trkpt lat="51.6632749792" lon="-1.9324339461"><ele>84.73</ele><time>2015-05-20T11:11:29Z</time></trkpt><trkpt lat="51.6633803397" lon="-1.9322855026"><ele>85.21</ele><time>2015-05-20T11:11:43Z</time></trkpt><trkpt lat="51.6634670924" lon="-1.9321723469"><ele>85.69</ele><time>2015-05-20T11:11:56Z</time></trkpt><trkpt lat="51.6635426134" lon="-1.9322720915"><ele>85.69</ele><time>2015-05-20T11:12:07Z</time></trkpt><trkpt lat="51.6636111774" lon="-1.9324004184"><ele>85.69</ele><time>2015-05-20T11:12:19Z</time></trkpt><trkpt lat="51.6636895481" lon="-1.9325465150"><ele>85.21</ele><time>2015-05-20T11:12:32Z</time></trkpt><trkpt lat="51.6637643985" lon="-1.9326450862"><ele>85.21</ele><time>2015-05-20T11:12:44Z</time></trkpt><trkpt lat="51.6637863591" lon="-1.9326802902"><ele>85.21</ele><time>2015-05-20T11:12:47Z</time></trkpt><trkpt lat="51.6638396680" lon="-1.9327638578"><ele>85.21</ele><time>2015-05-20T11:12:54Z</time></trkpt><trkpt lat="51.6638828348" lon="-1.9328554720"><ele>85.21</ele><time>2015-05-20T11:13:00Z</time></trkpt><trkpt lat="51.6639265884" lon="-1.9329392072"><ele>85.69</ele><time>2015-05-20T11:13:08Z</time></trkpt><trkpt lat="51.6640227288" lon="-1.9331366848"><ele>84.73</ele><time>2015-05-20T11:13:25Z</time></trkpt><trkpt lat="51.6641027760" lon="-1.9333058316"><ele>85.21</ele><time>2015-05-20T11:13:39Z</time></trkpt><trkpt lat="51.6641938034" lon="-1.9334738888"><ele>85.69</ele><time>2015-05-20T11:13:53Z</time></trkpt><trkpt lat="51.6643160116" lon="-1.9336624816"><ele>85.69</ele><time>2015-05-20T11:14:09Z</time></trkpt><trkpt lat="51.6643639561" lon="-1.9337241724"><ele>85.69</ele><time>2015-05-20T11:14:15Z</time></trkpt><trkpt lat="51.6644401476" lon="-1.9338654075"><ele>85.69</ele><time>2015-05-20T11:14:29Z</time></trkpt><trkpt lat="51.6645619366" lon="-1.9340590294"><ele>85.69</ele><time>2015-05-20T11:14:44Z</time></trkpt><trkpt lat="51.6646238789" lon="-1.9341613725"><ele>85.69</ele><time>2015-05-20T11:14:59Z</time></trkpt><trkpt lat="51.6647012439" lon="-1.9343192037"><ele>85.69</ele><time>2015-05-20T11:15:13Z</time></trkpt><trkpt lat="51.6647876613" lon="-1.9344721735"><ele>85.21</ele><time>2015-05-20T11:15:26Z</time></trkpt><trkpt lat="51.6648960393" lon="-1.9345325232"><ele>85.21</ele><time>2015-05-20T11:15:42Z</time></trkpt><trkpt lat="51.6649533715" lon="-1.9344893564"><ele>84.73</ele><time>2015-05-20T11:15:59Z</time></trkpt><trkpt lat="51.6649561375" lon="-1.9344442617"><ele>84.73</ele><time>2015-05-20T11:16:15Z</time></trkpt><trkpt lat="51.6649547964" lon="-1.9343874324"><ele>84.25</ele><time>2015-05-20T11:16:31Z</time></trkpt><trkpt lat="51.6649586521" lon="-1.9343248196"><ele>84.25</ele><time>2015-05-20T11:16:44Z</time></trkpt><trkpt lat="51.6650569718" lon="-1.9341135956"><ele>84.73</ele><time>2015-05-20T11:17:01Z</time></trkpt><trkpt lat="51.6651337501" lon="-1.9339628052"><ele>84.25</ele><time>2015-05-20T11:17:18Z</time></trkpt><trkpt lat="51.6651911661" lon="-1.9338154513"><ele>84.25</ele><time>2015-05-20T11:17:36Z</time></trkpt><trkpt lat="51.6652100254" lon="-1.9335625693"><ele>84.25</ele><time>2015-05-20T11:17:50Z</time></trkpt><trkpt lat="51.6654742230" lon="-1.9331842102"><ele>83.77</ele><time>2015-05-20T11:18:08Z</time></trkpt><trkpt lat="51.6655665077" lon="-1.9329625089"><ele>83.29</ele><time>2015-05-20T11:18:24Z</time></trkpt><trkpt lat="51.6656850278" lon="-1.9327383768"><ele>83.29</ele><time>2015-05-20T11:18:40Z</time></trkpt><trkpt lat="51.6658566054" lon="-1.9325504545"><ele>81.85</ele><time>2015-05-20T11:18:59Z</time></trkpt><trkpt lat="51.6660769656" lon="-1.9323055353"><ele>82.33</ele><time>2015-05-20T11:19:13Z</time></trkpt><trkpt lat="51.6662051249" lon="-1.9320917968"><ele>82.33</ele><time>2015-05-20T11:19:30Z</time></trkpt><trkpt lat="51.6664895229" lon="-1.9318885356"><ele>81.37</ele><time>2015-05-20T11:19:48Z</time></trkpt><trkpt lat="51.6667210311" lon="-1.9316501543"><ele>81.37</ele><time>2015-05-20T11:20:06Z</time></trkpt><trkpt lat="51.6668722406" lon="-1.9313289598"><ele>81.37</ele><time>2015-05-20T11:20:23Z</time></trkpt><trkpt lat="51.6669221967" lon="-1.9311229326"><ele>80.89</ele><time>2015-05-20T11:20:43Z</time></trkpt><trkpt lat="51.6670033336" lon="-1.9310046639"><ele>80.89</ele><time>2015-05-20T11:21:00Z</time></trkpt><trkpt lat="51.6671126336" lon="-1.9308575615"><ele>80.89</ele><time>2015-05-20T11:21:16Z</time></trkpt><trkpt lat="51.6673130449" lon="-1.9305414800"><ele>80.41</ele><time>2015-05-20T11:21:36Z</time></trkpt><trkpt lat="51.6673738975" lon="-1.9303201977"><ele>80.41</ele><time>2015-05-20T11:21:51Z</time></trkpt><trkpt lat="51.6674783360" lon="-1.9301400706"><ele>81.85</ele><time>2015-05-20T11:22:04Z</time></trkpt><trkpt lat="51.6675276216" lon="-1.9301813096"><ele>81.85</ele><time>2015-05-20T11:22:13Z</time></trkpt><trkpt lat="51.6676220018" lon="-1.9303033501"><ele>82.33</ele><time>2015-05-20T11:22:25Z</time></trkpt><trkpt lat="51.6677808389" lon="-1.9304074533"><ele>81.85</ele><time>2015-05-20T11:22:42Z</time></trkpt><trkpt lat="51.6677948367" lon="-1.9304194394"><ele>81.85</ele><time>2015-05-20T11:22:44Z</time></trkpt><trkpt lat="51.6678245086" lon="-1.9304466806"><ele>81.85</ele><time>2015-05-20T11:22:47Z</time></trkpt><trkpt lat="51.6679457948" lon="-1.9305491913"><ele>82.33</ele><time>2015-05-20T11:23:02Z</time></trkpt><trkpt lat="51.6680245008" lon="-1.9306314178"><ele>81.85</ele><time>2015-05-20T11:23:11Z</time></trkpt><trkpt lat="51.6680936515" lon="-1.9306910131"><ele>81.85</ele><time>2015-05-20T11:23:18Z</time></trkpt><trkpt lat="51.6681326274" lon="-1.9307269715"><ele>81.85</ele><time>2015-05-20T11:23:22Z</time></trkpt><trkpt lat="51.6682744492" lon="-1.9308749121"><ele>81.85</ele><time>2015-05-20T11:23:38Z</time></trkpt><trkpt lat="51.6683436837" lon="-1.9309630059"><ele>81.85</ele><time>2015-05-20T11:23:47Z</time></trkpt><trkpt lat="51.6683628783" lon="-1.9309795182"><ele>82.33</ele><time>2015-05-20T11:23:49Z</time></trkpt><trkpt lat="51.6684139241" lon="-1.9310206734"><ele>82.33</ele><time>2015-05-20T11:23:54Z</time></trkpt><trkpt lat="51.6684374772" lon="-1.9310472440"><ele>82.33</ele><time>2015-05-20T11:23:57Z</time></trkpt><trkpt lat="51.6685299296" lon="-1.9311532751"><ele>81.85</ele><time>2015-05-20T11:24:09Z</time></trkpt><trkpt lat="51.6685608588" lon="-1.9311809354"><ele>82.33</ele><time>2015-05-20T11:24:12Z</time></trkpt><trkpt lat="51.6686751880" lon="-1.9313163869"><ele>82.33</ele><time>2015-05-20T11:24:25Z</time></trkpt><trkpt lat="51.6687264014" lon="-1.9313527644"><ele>82.81</ele><time>2015-05-20T11:24:30Z</time></trkpt><trkpt lat="51.6688757669" lon="-1.9314840250"><ele>82.81</ele><time>2015-05-20T11:24:45Z</time></trkpt><trkpt lat="51.6690372024" lon="-1.9316030480"><ele>81.85</ele><time>2015-05-20T11:24:58Z</time></trkpt><trkpt lat="51.6690508649" lon="-1.9316085801"><ele>82.33</ele><time>2015-05-20T11:24:59Z</time></trkpt><trkpt lat="51.6691414732" lon="-1.9316016231"><ele>82.33</ele><time>2015-05-20T11:25:14Z</time></trkpt><trkpt lat="51.6691780183" lon="-1.9316237513"><ele>82.81</ele><time>2015-05-20T11:25:34Z</time></trkpt><trkpt lat="51.6691849753" lon="-1.9316319656"><ele>82.33</ele><time>2015-05-20T11:25:35Z</time></trkpt><trkpt lat="51.6693707183" lon="-1.9317645673"><ele>82.33</ele><time>2015-05-20T11:25:52Z</time></trkpt><trkpt lat="51.6695303097" lon="-1.9318694249"><ele>82.33</ele><time>2015-05-20T11:26:08Z</time></trkpt><trkpt lat="51.6695495043" lon="-1.9318931457"><ele>81.85</ele><time>2015-05-20T11:26:10Z</time></trkpt><trkpt lat="51.6695726383" lon="-1.9319107477"><ele>82.33</ele><time>2015-05-20T11:26:12Z</time></trkpt><trkpt lat="51.6697405279" lon="-1.9320103247"><ele>82.33</ele><time>2015-05-20T11:26:27Z</time></trkpt><trkpt lat="51.6699111834" lon="-1.9321589358"><ele>82.81</ele><time>2015-05-20T11:26:43Z</time></trkpt><trkpt lat="51.6700287815" lon="-1.9322460238"><ele>82.33</ele><time>2015-05-20T11:26:55Z</time></trkpt><trkpt lat="51.6701481398" lon="-1.9323419128"><ele>82.33</ele><time>2015-05-20T11:27:08Z</time></trkpt><trkpt lat="51.6702870280" lon="-1.9324259833"><ele>82.33</ele><time>2015-05-20T11:27:20Z</time></trkpt><trkpt lat="51.6703292727" lon="-1.9324355386"><ele>82.33</ele><time>2015-05-20T11:27:23Z</time></trkpt><trkpt lat="51.6704949830" lon="-1.9324735925"><ele>83.29</ele><time>2015-05-20T11:27:37Z</time></trkpt><trkpt lat="51.6706298478" lon="-1.9324560743"><ele>82.33</ele><time>2015-05-20T11:27:52Z</time></trkpt><trkpt lat="51.6707604378" lon="-1.9324142486"><ele>82.33</ele><time>2015-05-20T11:28:06Z</time></trkpt><trkpt lat="51.6708614398" lon="-1.9324217085"><ele>82.33</ele><time>2015-05-20T11:28:18Z</time></trkpt><trkpt lat="51.6710332688" lon="-1.9323831517"><ele>82.81</ele><time>2015-05-20T11:28:33Z</time></trkpt><trkpt lat="51.6711999010" lon="-1.9323246460"><ele>82.33</ele><time>2015-05-20T11:28:49Z</time></trkpt><trkpt lat="51.6712975502" lon="-1.9321711734"><ele>82.81</ele><time>2015-05-20T11:29:02Z</time></trkpt><trkpt lat="51.6713102069" lon="-1.9321407471"><ele>82.33</ele><time>2015-05-20T11:29:04Z</time></trkpt><trkpt lat="51.6714391205" lon="-1.9318674132"><ele>82.81</ele><time>2015-05-20T11:29:20Z</time></trkpt><trkpt lat="51.6714566387" lon="-1.9318019506"><ele>82.33</ele><time>2015-05-20T11:29:24Z</time></trkpt><trkpt lat="51.6714538727" lon="-1.9317288604"><ele>82.33</ele><time>2015-05-20T11:29:28Z</time></trkpt><trkpt lat="51.6714902502" lon="-1.9316659961"><ele>82.33</ele><time>2015-05-20T11:29:32Z</time></trkpt><trkpt lat="51.6715271305" lon="-1.9315988570"><ele>82.81</ele><time>2015-05-20T11:29:36Z</time></trkpt><trkpt lat="51.6716075130" lon="-1.9313691929"><ele>82.81</ele><time>2015-05-20T11:29:50Z</time></trkpt><trkpt lat="51.6716162302" lon="-1.9313411973"><ele>82.81</ele><time>2015-05-20T11:29:52Z</time></trkpt><trkpt lat="51.6717544477" lon="-1.9311598130"><ele>82.33</ele><time>2015-05-20T11:30:09Z</time></trkpt><trkpt lat="51.6718141269" lon="-1.9311049115"><ele>82.33</ele><time>2015-05-20T11:30:15Z</time></trkpt><trkpt lat="51.6719029751" lon="-1.9309302326"><ele>82.81</ele><time>2015-05-20T11:30:29Z</time></trkpt><trkpt lat="51.6719171405" lon="-1.9309109543"><ele>82.81</ele><time>2015-05-20T11:30:31Z</time></trkpt><trkpt lat="51.6719551105" lon="-1.9308492634"><ele>82.81</ele><time>2015-05-20T11:30:37Z</time></trkpt><trkpt lat="51.6720161308" lon="-1.9307268038"><ele>82.33</ele><time>2015-05-20T11:30:46Z</time></trkpt><trkpt lat="51.6721383389" lon="-1.9305462576"><ele>82.81</ele><time>2015-05-20T11:31:02Z</time></trkpt><trkpt lat="51.6722530033" lon="-1.9305833895"><ele>82.33</ele><time>2015-05-20T11:31:14Z</time></trkpt><trkpt lat="51.6724570189" lon="-1.9306605030"><ele>81.85</ele><time>2015-05-20T11:31:30Z</time></trkpt><trkpt lat="51.6725083161" lon="-1.9306809548"><ele>82.33</ele><time>2015-05-20T11:31:34Z</time></trkpt><trkpt lat="51.6726555023" lon="-1.9307591580"><ele>82.81</ele><time>2015-05-20T11:31:48Z</time></trkpt><trkpt lat="51.6726907901" lon="-1.9307863154"><ele>82.81</ele><time>2015-05-20T11:31:52Z</time></trkpt><trkpt lat="51.6727587674" lon="-1.9307417236"><ele>82.81</ele><time>2015-05-20T11:31:58Z</time></trkpt><trkpt lat="51.6729098931" lon="-1.9307531230"><ele>82.33</ele><time>2015-05-20T11:32:13Z</time></trkpt><trkpt lat="51.6730777826" lon="-1.9308345951"><ele>82.33</ele><time>2015-05-20T11:32:29Z</time></trkpt><trkpt lat="51.6732335184" lon="-1.9308858085"><ele>82.81</ele><time>2015-05-20T11:32:44Z</time></trkpt><trkpt lat="51.6733286530" lon="-1.9309092779"><ele>82.33</ele><time>2015-05-20T11:32:52Z</time></trkpt><trkpt lat="51.6734391265" lon="-1.9308053423"><ele>83.77</ele><time>2015-05-20T11:33:07Z</time></trkpt><trkpt lat="51.6734515317" lon="-1.9308041688"><ele>84.25</ele><time>2015-05-20T11:33:08Z</time></trkpt><trkpt lat="51.6735898331" lon="-1.9307631813"><ele>83.77</ele><time>2015-05-20T11:33:24Z</time></trkpt><trkpt lat="51.6736027412" lon="-1.9306936115"><ele>83.77</ele><time>2015-05-20T11:33:43Z</time></trkpt><trkpt lat="51.6737006418" lon="-1.9306436554"><ele>84.25</ele><time>2015-05-20T11:33:53Z</time></trkpt><trkpt lat="51.6736997198" lon="-1.9306431524"><ele>83.77</ele><time>2015-05-20T11:33:59Z</time></trkpt></trkseg></trk></gpx>